createdAt,value
2023-04-01T00:01:48.626Z,1.38
2023-04-01T00:04:16.861Z,1.55
2023-04-01T00:06:43.959Z,1.15
2023-04-01T00:09:10.835Z,1.60
2023-04-01T00:11:37.957Z,1.23
2023-04-01T00:14:05.669Z,1.33
2023-04-01T00:16:32.961Z,1.52
2023-04-01T00:19:00.751Z,1.17
2023-04-01T00:21:28.018Z,1.35
2023-04-01T00:23:55.010Z,1.50
2023-04-01T00:26:23.061Z,1.40
2023-04-01T00:28:50.736Z,1.25
2023-04-01T00:31:18.342Z,1.58
2023-04-01T00:33:45.671Z,1.67
2023-04-01T00:36:15.904Z,1.75
2023-04-01T00:38:44.012Z,1.58
2023-04-01T00:41:15.909Z,1.88
2023-04-01T00:43:45.119Z,2.67
2023-04-01T00:46:12.597Z,1.52
2023-04-01T00:48:59.930Z,1.67
2023-04-01T00:51:30.535Z,1.00
2023-04-01T00:53:59.835Z,1.35
2023-04-01T00:56:36.662Z,1.25
2023-04-01T00:59:09.488Z,1.45
2023-04-01T01:01:37.716Z,1.00
2023-04-01T01:04:04.792Z,1.33
2023-04-01T01:06:44.014Z,1.10
2023-04-01T01:09:30.422Z,0.98
2023-04-01T01:12:17.039Z,1.17
2023-04-01T01:15:17.002Z,1.13
2023-04-01T01:18:05.420Z,0.82
2023-04-01T01:21:11.579Z,1.17
2023-04-01T01:23:57.328Z,0.85
2023-04-01T01:26:57.982Z,1.08
2023-04-01T01:30:04.508Z,0.77
2023-04-01T01:32:40.492Z,0.93
2023-04-01T01:35:07.719Z,1.00
2023-04-01T01:37:35.029Z,1.05
2023-04-01T01:40:06.268Z,1.38
2023-04-01T01:42:36.670Z,1.27
2023-04-01T01:45:06.063Z,1.40
2023-04-01T01:47:35.661Z,0.85
2023-04-01T01:50:04.333Z,0.60
2023-04-01T01:52:31.474Z,0.80
2023-04-01T01:54:59.672Z,0.80
2023-04-01T01:57:39.110Z,0.90
2023-04-01T02:00:15.741Z,0.70
2023-04-01T02:02:45.048Z,0.70
2023-04-01T02:05:19.852Z,0.73
2023-04-01T02:07:53.123Z,0.90
2023-04-01T02:10:22.302Z,1.63
2023-04-01T02:12:51.929Z,1.80
2023-04-01T02:15:20.849Z,2.45
2023-04-01T02:17:49.000Z,1.80
2023-04-01T02:20:20.532Z,1.50
2023-04-01T02:22:57.580Z,1.40
2023-04-01T02:25:36.505Z,0.90
2023-04-01T02:28:07.516Z,1.10
2023-04-01T02:30:37.477Z,0.55
2023-04-01T02:33:06.397Z,0.80
2023-04-01T02:35:42.629Z,1.23
2023-04-01T02:38:10.100Z,1.30
2023-04-01T02:40:57.629Z,1.40
2023-04-01T02:43:24.730Z,1.48
2023-04-01T02:45:51.550Z,1.60
2023-04-01T02:48:18.384Z,1.00
2023-04-01T02:50:45.330Z,1.10
2023-04-01T02:53:12.986Z,1.00
2023-04-01T02:55:39.866Z,1.23
2023-04-01T02:58:07.178Z,1.15
2023-04-01T03:00:34.386Z,0.85
2023-04-01T03:03:01.557Z,0.68
2023-04-01T03:05:28.501Z,0.80
2023-04-01T03:07:56.373Z,0.90
2023-04-01T03:10:23.613Z,0.60
2023-04-01T03:12:50.426Z,0.57
2023-04-01T03:15:17.650Z,0.70
2023-04-01T03:17:44.986Z,0.60
2023-04-01T03:20:12.775Z,0.60
2023-04-01T03:22:42.699Z,0.38
2023-04-01T03:25:12.020Z,0.60
2023-04-01T03:27:39.469Z,0.38
2023-04-01T03:30:07.449Z,0.43
2023-04-01T03:32:34.836Z,0.30
2023-04-01T03:35:01.841Z,0.38
2023-04-01T03:37:28.768Z,0.20
2023-04-01T03:39:55.883Z,0.20
2023-04-01T03:42:23.239Z,0.50
2023-04-01T03:44:50.052Z,0.50
2023-04-01T03:47:16.889Z,0.50
2023-04-01T03:49:43.720Z,0.20
2023-04-01T03:52:12.165Z,0.30
2023-04-01T03:54:39.553Z,0.38
2023-04-01T03:57:06.648Z,0.20
2023-04-01T03:59:34.048Z,0.50
2023-04-01T04:02:01.335Z,0.40
2023-04-01T04:04:28.590Z,0.20
2023-04-01T04:06:56.026Z,0.30
2023-04-01T04:09:23.526Z,0.30
2023-04-01T04:11:51.139Z,0.40
2023-04-01T04:14:18.220Z,0.30
2023-04-01T04:16:45.478Z,0.40
2023-04-01T04:19:12.367Z,0.10
2023-04-01T04:21:40.301Z,0.30
2023-04-01T04:24:07.397Z,0.10
2023-04-01T04:26:34.685Z,0.28
2023-04-01T04:29:02.313Z,0.30
2023-04-01T04:31:29.614Z,0.50
2023-04-01T04:33:57.192Z,0.50
2023-04-01T04:36:24.544Z,0.10
2023-04-01T04:38:52.341Z,0.20
2023-04-01T04:41:20.323Z,0.25
2023-04-01T04:43:57.513Z,0.50
2023-04-01T04:46:25.046Z,0.60
2023-04-01T04:48:52.075Z,0.40
2023-04-01T04:51:20.738Z,0.40
2023-04-01T04:53:47.895Z,0.40
2023-04-01T04:56:19.524Z,0.40
2023-04-01T04:58:46.707Z,0.35
2023-04-01T05:01:16.339Z,0.55
2023-04-01T05:03:43.850Z,0.70
2023-04-01T05:06:14.616Z,0.30
2023-04-01T05:08:42.746Z,0.60
2023-04-01T05:11:18.552Z,0.47
2023-04-01T05:13:46.632Z,0.30
2023-04-01T05:16:17.011Z,0.60
2023-04-01T05:18:44.353Z,0.88
2023-04-01T05:21:13.992Z,1.15
2023-04-01T05:23:41.777Z,0.60
2023-04-01T05:26:11.226Z,0.70
2023-04-01T05:28:39.326Z,0.90
2023-04-01T05:31:07.689Z,1.00
2023-04-01T05:33:34.656Z,1.77
2023-04-01T05:36:15.616Z,2.15
2023-04-01T05:38:47.381Z,1.80
2023-04-01T05:41:15.504Z,1.23
2023-04-01T05:43:43.097Z,1.08
2023-04-01T05:46:10.323Z,0.50
2023-04-01T05:48:38.686Z,0.75
2023-04-01T05:51:06.156Z,0.77
2023-04-01T05:53:33.616Z,0.93
2023-04-01T05:56:04.492Z,1.70
2023-04-01T05:58:31.994Z,1.80
2023-04-01T06:01:16.274Z,0.77
2023-04-01T06:03:43.998Z,0.60
2023-04-01T06:06:26.243Z,1.00
2023-04-01T06:08:54.565Z,1.42
2023-04-01T06:11:39.819Z,1.58
2023-04-01T06:14:25.133Z,1.48
2023-04-01T06:17:24.490Z,1.10
2023-04-01T06:20:23.944Z,1.23
2023-04-01T06:22:57.336Z,1.10
2023-04-01T06:25:33.421Z,1.20
2023-04-01T06:28:03.972Z,1.08
2023-04-01T06:30:33.544Z,1.02
2023-04-01T06:33:31.309Z,0.70
2023-04-01T06:36:10.427Z,0.60
2023-04-01T06:39:17.679Z,0.73
2023-04-01T06:41:59.177Z,1.10
2023-04-01T06:44:27.134Z,1.83
2023-04-01T06:47:16.882Z,2.22
2023-04-01T06:49:50.875Z,3.63
2023-04-01T06:52:26.141Z,3.10
2023-04-01T06:55:07.088Z,2.38
2023-04-01T06:57:42.142Z,1.80
2023-04-01T07:00:18.025Z,5.80
2023-04-01T07:03:00.443Z,5.03
2023-04-01T07:05:31.851Z,4.25
2023-04-01T07:08:03.504Z,2.60
2023-04-01T07:10:52.957Z,1.70
2023-04-01T07:13:30.314Z,1.80
2023-04-01T07:16:07.115Z,0.55
2023-04-01T07:18:42.861Z,0.43
2023-04-01T07:21:23.042Z,0.35
2023-04-01T07:23:51.748Z,0.43
2023-04-01T07:26:23.603Z,0.70
2023-04-01T07:28:52.994Z,0.80
2023-04-01T07:31:26.521Z,0.55
2023-04-01T07:34:06.199Z,0.85
2023-04-01T07:37:11.313Z,1.00
2023-04-01T07:40:10.504Z,1.00
2023-04-01T07:43:02.408Z,0.98
2023-04-01T07:45:35.650Z,0.50
2023-04-01T07:48:14.850Z,0.63
2023-04-01T07:50:56.616Z,0.85
2023-04-01T07:53:28.988Z,1.88
2023-04-01T07:56:27.976Z,0.98
2023-04-01T07:59:03.438Z,0.40
2023-04-01T08:01:50.534Z,0.30
2023-04-01T08:04:31.992Z,0.40
2023-04-01T08:07:11.155Z,0.47
2023-04-01T08:10:00.281Z,0.43
2023-04-01T08:12:48.623Z,0.40
2023-04-01T08:15:37.236Z,0.52
2023-04-01T08:18:18.194Z,0.52
2023-04-01T08:20:52.093Z,0.80
2023-04-01T08:23:27.202Z,0.70
2023-04-01T08:26:06.209Z,0.32
2023-04-01T08:28:45.986Z,0.50
2023-04-01T08:31:31.254Z,0.40
2023-04-01T08:33:58.429Z,0.63
2023-04-01T08:36:35.178Z,0.30
2023-04-01T08:39:15.487Z,0.40
2023-04-01T08:41:54.124Z,0.65
2023-04-01T08:44:39.518Z,0.70
2023-04-01T08:47:44.130Z,1.10
2023-04-01T08:50:29.842Z,2.03
2023-04-01T08:53:19.963Z,0.98
2023-04-01T08:56:01.683Z,1.15
2023-04-01T08:58:34.789Z,1.20
2023-04-01T09:01:16.742Z,1.08
2023-04-01T09:03:53.141Z,0.77
2023-04-01T09:06:44.577Z,1.58
2023-04-01T09:09:33.108Z,1.10
2023-04-01T09:12:29.510Z,1.40
2023-04-01T09:15:15.383Z,1.20
2023-04-01T09:17:57.208Z,1.20
2023-04-01T09:20:30.130Z,1.63
2023-04-01T09:23:14.887Z,0.60
2023-04-01T09:26:13.907Z,0.45
2023-04-01T09:28:46.543Z,0.30
2023-04-01T09:31:50.431Z,0.63
2023-04-01T09:34:52.062Z,0.30
2023-04-01T09:37:31.974Z,0.50
2023-04-01T09:40:11.339Z,0.90
2023-04-01T09:43:15.687Z,0.30
2023-04-01T09:45:58.635Z,0.20
2023-04-01T09:48:56.618Z,0.40
2023-04-01T09:51:57.522Z,0.90
2023-04-01T09:54:30.138Z,1.00
2023-04-01T09:57:08.924Z,0.57
2023-04-01T09:59:44.945Z,0.30
2023-04-01T10:02:45.400Z,0.45
2023-04-01T10:05:35.108Z,1.00
2023-04-01T10:08:39.575Z,0.70
2023-04-01T10:11:33.646Z,0.40
2023-04-01T10:14:25.373Z,0.40
2023-04-01T10:17:23.126Z,0.47
2023-04-01T10:20:28.851Z,0.63
2023-04-01T10:23:16.918Z,0.45
2023-04-01T10:26:12.909Z,0.20
2023-04-01T10:28:58.305Z,0.30
2023-04-01T10:31:46.348Z,0.45
2023-04-01T10:34:31.492Z,0.38
2023-04-01T10:36:59.726Z,0.43
2023-04-01T10:39:53.328Z,0.35
2023-04-01T10:42:57.979Z,0.60
2023-04-01T10:45:44.084Z,0.30
2023-04-01T10:48:42.317Z,0.32
2023-04-01T10:51:19.082Z,0.22
2023-04-01T10:54:07.375Z,0.30
2023-04-01T10:56:48.023Z,0.30
2023-04-01T10:59:48.599Z,0.20
2023-04-01T11:02:18.454Z,0.15
2023-04-01T11:05:11.011Z,0.22
2023-04-01T11:07:40.974Z,0.10
2023-04-01T11:10:22.968Z,0.30
2023-04-01T11:13:07.651Z,0.47
2023-04-01T11:16:22.178Z,0.20
2023-04-01T11:19:01.180Z,0.20
2023-04-01T11:21:41.363Z,0.13
2023-04-01T11:24:22.645Z,1.30
2023-04-01T11:27:10.985Z,0.40
2023-04-01T11:30:15.873Z,0.10
2023-04-01T11:32:55.491Z,0.08
2023-04-01T11:36:02.874Z,0.20
2023-04-01T11:38:54.748Z,0.20
2023-04-01T11:41:54.994Z,0.10
2023-04-01T11:44:30.478Z,0.28
2023-04-01T11:47:20.149Z,0.10
2023-04-01T11:49:58.878Z,0.20
2023-04-01T11:52:43.380Z,0.15
2023-04-01T11:55:25.282Z,0.43
2023-04-01T11:58:19.776Z,0.30
2023-04-01T12:01:24.257Z,0.00
2023-04-01T12:04:00.290Z,0.10
2023-04-01T12:06:42.090Z,0.22
2023-04-01T12:09:16.068Z,0.10
2023-04-01T12:12:13.234Z,0.10
2023-04-01T12:15:14.961Z,0.20
2023-04-01T12:17:56.389Z,0.10
2023-04-01T12:20:31.241Z,0.10
2023-04-01T12:23:06.717Z,0.20
2023-04-01T12:25:57.777Z,0.20
2023-04-01T12:28:54.144Z,0.10
2023-04-01T12:31:32.512Z,0.30
2023-04-01T12:34:23.705Z,0.40
2023-04-01T12:37:21.294Z,0.30
2023-04-01T12:40:21.084Z,0.55
2023-04-01T12:43:06.052Z,0.20
2023-04-01T12:45:55.028Z,0.20
2023-04-01T12:49:08.611Z,0.28
2023-04-01T12:51:54.248Z,0.10
2023-04-01T12:54:23.767Z,0.30
2023-04-01T12:57:15.756Z,0.38
2023-04-01T12:59:59.085Z,0.10
2023-04-01T13:02:47.315Z,0.20
2023-04-01T13:05:31.952Z,0.10
2023-04-01T13:08:25.301Z,0.10
2023-04-01T13:11:09.753Z,0.10
2023-04-01T13:13:55.202Z,0.20
2023-04-01T13:16:25.398Z,0.20
2023-04-01T13:19:14.819Z,0.10
2023-04-01T13:21:52.383Z,0.10
2023-04-01T13:24:28.072Z,0.20
2023-04-01T13:27:31.581Z,0.30
2023-04-01T13:30:06.739Z,0.35
2023-04-01T13:33:12.392Z,0.32
2023-04-01T13:36:02.058Z,0.25
2023-04-01T13:38:29.263Z,0.80
2023-04-01T13:41:03.887Z,0.30
2023-04-01T13:44:08.992Z,0.20
2023-04-01T13:47:02.584Z,0.20
2023-04-01T13:49:54.276Z,0.22
2023-04-01T13:53:02.505Z,0.20
2023-04-01T13:56:00.253Z,0.20
2023-04-01T13:58:39.234Z,0.30
2023-04-01T14:01:30.127Z,0.30
2023-04-01T14:04:06.041Z,0.10
2023-04-01T14:06:41.293Z,0.38
2023-04-01T14:09:13.896Z,0.30
2023-04-01T14:12:02.076Z,0.20
2023-04-01T14:14:44.448Z,0.10
2023-04-01T14:17:51.077Z,0.20
2023-04-01T14:20:41.353Z,0.25
2023-04-01T14:23:26.270Z,0.30
2023-04-01T14:26:16.107Z,0.30
2023-04-01T14:28:46.673Z,0.30
2023-04-01T14:31:32.102Z,0.30
2023-04-01T14:34:07.882Z,0.25
2023-04-01T14:36:45.135Z,0.47
2023-04-01T14:39:44.653Z,0.30
2023-04-01T14:42:41.969Z,0.25
2023-04-01T14:45:26.052Z,0.30
2023-04-01T14:48:14.681Z,0.40
2023-04-01T14:50:48.853Z,0.40
2023-04-01T14:53:24.710Z,0.28
2023-04-01T14:55:54.830Z,0.30
2023-04-01T14:58:26.255Z,0.77
2023-04-01T15:01:07.143Z,0.45
2023-04-01T15:03:41.300Z,0.50
2023-04-01T15:06:38.377Z,0.30
2023-04-01T15:09:26.113Z,0.90
2023-04-01T15:12:08.422Z,0.30
2023-04-01T15:15:02.077Z,0.40
2023-04-01T15:17:47.801Z,0.43
2023-04-01T15:20:48.163Z,0.40
2023-04-01T15:23:41.244Z,0.30
2023-04-01T15:26:46.019Z,0.40
2023-04-01T15:29:12.938Z,0.28
2023-04-01T15:31:45.470Z,0.50
2023-04-01T15:34:49.860Z,0.30
2023-04-01T15:37:55.427Z,0.40
2023-04-01T15:40:40.467Z,0.40
2023-04-01T15:43:09.956Z,0.70
2023-04-01T15:45:59.249Z,0.45
2023-04-01T15:48:50.823Z,0.55
2023-04-01T15:51:31.445Z,0.45
2023-04-01T15:54:15.865Z,0.60
2023-04-01T15:57:20.549Z,0.75
2023-04-01T16:00:18.597Z,1.30
2023-04-01T16:02:52.143Z,1.70
2023-04-01T16:05:51.649Z,1.30
2023-04-01T16:09:03.898Z,1.00
2023-04-01T16:11:39.853Z,0.93
2023-04-01T16:14:45.565Z,1.60
2023-04-01T16:17:30.679Z,1.15
2023-04-01T16:20:13.263Z,2.25
2023-04-01T16:22:49.938Z,5.22
2023-04-01T16:25:20.062Z,5.55
2023-04-01T16:27:46.817Z,3.45
2023-04-01T16:30:43.904Z,1.50
2023-04-01T16:33:13.926Z,1.17
2023-04-01T16:36:16.525Z,1.63
2023-04-01T16:38:53.250Z,1.95
2023-04-01T16:41:40.988Z,0.80
2023-04-01T16:44:23.894Z,0.82
2023-04-01T16:46:57.324Z,1.98
2023-04-01T16:50:06.257Z,1.00
2023-04-01T16:52:51.930Z,1.30
2023-04-01T16:55:21.344Z,2.10
2023-04-01T16:57:57.779Z,2.33
2023-04-01T17:00:52.605Z,1.08
2023-04-01T17:03:33.109Z,1.70
2023-04-01T17:06:35.569Z,0.80
2023-04-01T17:09:46.890Z,0.47
2023-04-01T17:12:32.271Z,3.47
2023-04-01T17:15:36.534Z,2.15
2023-04-01T17:18:15.471Z,0.88
2023-04-01T17:20:50.018Z,2.47
2023-04-01T17:23:38.702Z,1.48
2023-04-01T17:26:17.640Z,0.70
2023-04-01T17:29:12.708Z,1.80
2023-04-01T17:32:04.093Z,1.55
2023-04-01T17:34:53.470Z,1.27
2023-04-01T17:37:40.358Z,1.88
2023-04-01T17:40:22.368Z,2.58
2023-04-01T17:43:22.377Z,2.53
2023-04-01T17:45:56.901Z,2.28
2023-04-01T17:48:55.396Z,1.60
2023-04-01T17:51:37.499Z,1.20
2023-04-01T17:54:38.305Z,1.83
2023-04-01T17:57:24.518Z,1.63
2023-04-01T18:00:04.653Z,1.58
2023-04-01T18:02:46.595Z,1.45
2023-04-01T18:05:19.823Z,1.00
2023-04-01T18:08:21.259Z,0.60
2023-04-01T18:10:58.819Z,3.97
2023-04-01T18:13:52.049Z,3.38
2023-04-01T18:16:24.945Z,1.25
2023-04-01T18:19:19.646Z,1.95
2023-04-01T18:21:48.406Z,1.40
2023-04-01T18:24:21.253Z,1.40
2023-04-01T18:27:13.739Z,0.80
2023-04-01T18:29:42.749Z,1.10
2023-04-01T18:32:43.498Z,1.40
2023-04-01T18:35:54.274Z,1.63
2023-04-01T18:38:43.007Z,2.25
2023-04-01T18:41:27.275Z,5.72
2023-04-01T18:44:39.318Z,5.45
2023-04-01T18:47:44.646Z,7.70
2023-04-01T18:50:37.780Z,6.55
2023-04-01T18:53:15.305Z,7.28
2023-04-01T18:55:50.494Z,8.23
2023-04-01T18:58:33.245Z,16.05
2023-04-01T19:01:20.737Z,12.35
2023-04-01T19:04:11.282Z,9.32
2023-04-01T19:07:19.927Z,6.05
2023-04-01T19:09:51.319Z,18.52
2023-04-01T19:12:30.349Z,13.13
2023-04-01T19:15:00.000Z,11.05
2023-04-01T19:17:48.113Z,7.28
2023-04-01T19:20:30.857Z,10.93
2023-04-01T19:23:14.483Z,11.68
2023-04-01T19:25:48.410Z,20.55
2023-04-01T19:28:27.174Z,9.20
2023-04-01T19:31:24.688Z,8.27
2023-04-01T19:34:22.469Z,8.70
2023-04-01T19:36:56.008Z,10.60
2023-04-01T19:39:43.338Z,11.38
2023-04-01T19:42:41.419Z,9.00
2023-04-01T19:45:23.788Z,10.48
2023-04-01T19:48:15.872Z,12.68
2023-04-01T19:51:07.980Z,11.50
2023-04-01T19:53:59.622Z,9.38
2023-04-01T19:56:40.387Z,9.80
2023-04-01T19:59:14.613Z,9.48
2023-04-01T20:01:59.483Z,7.53
2023-04-01T20:04:42.039Z,8.02
2023-04-01T20:07:19.873Z,7.03
2023-04-01T20:09:47.475Z,4.72
2023-04-01T20:12:32.288Z,4.70
2023-04-01T20:15:01.742Z,5.50
2023-04-01T20:17:33.426Z,5.70
2023-04-01T20:20:09.233Z,6.00
2023-04-01T20:22:45.800Z,4.20
2023-04-01T20:25:27.480Z,4.60
2023-04-01T20:28:24.155Z,4.65
2023-04-01T20:31:29.559Z,5.63
2023-04-01T20:34:11.607Z,4.75
2023-04-01T20:36:59.446Z,5.80
2023-04-01T20:39:33.324Z,9.75
2023-04-01T20:42:03.506Z,8.23
2023-04-01T20:44:43.514Z,6.65
2023-04-01T20:47:36.449Z,4.38
2023-04-01T20:50:42.301Z,5.60
2023-04-01T20:53:44.277Z,11.88
2023-04-01T20:56:32.657Z,6.97
2023-04-01T20:59:37.710Z,6.05
2023-04-01T21:02:26.244Z,5.65
2023-04-01T21:05:26.910Z,11.07
2023-04-01T21:08:20.761Z,14.13
2023-04-01T21:11:11.403Z,11.52
2023-04-01T21:14:02.534Z,9.88
2023-04-01T21:16:38.708Z,12.68
2023-04-01T21:19:24.077Z,13.63
2023-04-01T21:22:12.587Z,14.95
2023-04-01T21:24:58.295Z,15.82
2023-04-01T21:27:39.967Z,14.15
2023-04-01T21:30:16.068Z,12.55
2023-04-01T21:33:17.486Z,10.93
2023-04-01T21:36:08.978Z,13.65
2023-04-01T21:38:56.791Z,13.40
2023-04-01T21:41:41.815Z,11.85
2023-04-01T21:44:21.044Z,9.80
2023-04-01T21:47:11.253Z,9.70
2023-04-01T21:50:09.354Z,9.15
2023-04-01T21:53:27.494Z,9.60
2023-04-01T21:56:18.370Z,11.18
2023-04-01T21:59:09.954Z,10.45
2023-04-01T22:02:12.018Z,11.05
2023-04-01T22:04:44.579Z,11.43
2023-04-01T22:07:13.837Z,12.90
2023-04-01T22:10:36.154Z,11.73
2023-04-01T22:13:17.868Z,11.93
2023-04-01T22:16:04.190Z,12.48
2023-04-01T22:19:14.250Z,12.15
2023-04-01T22:21:45.948Z,12.38
2023-04-01T22:24:44.449Z,13.07
2023-04-01T22:27:29.274Z,12.38
2023-04-01T22:30:07.628Z,11.32
2023-04-01T22:32:51.079Z,10.55
2023-04-01T22:35:24.510Z,11.48
2023-04-01T22:38:10.520Z,10.38
2023-04-01T22:40:56.515Z,9.75
2023-04-01T22:43:37.212Z,8.93
2023-04-01T22:46:23.323Z,8.82
2023-04-01T22:49:18.848Z,8.05
2023-04-01T22:51:55.033Z,8.85
2023-04-01T22:54:30.742Z,8.65
2023-04-01T22:57:15.531Z,8.77
2023-04-01T22:59:49.713Z,9.65
2023-04-01T23:02:22.899Z,11.07
2023-04-01T23:05:00.260Z,12.43
2023-04-01T23:07:47.964Z,11.88
2023-04-01T23:10:39.473Z,12.25
2023-04-01T23:13:09.989Z,11.27
2023-04-01T23:15:37.981Z,10.68
2023-04-01T23:18:19.549Z,11.52
2023-04-01T23:21:18.716Z,11.15
2023-04-01T23:24:00.978Z,12.05
2023-04-01T23:26:40.440Z,11.00
2023-04-01T23:29:16.058Z,10.88
2023-04-01T23:31:45.452Z,10.70
2023-04-01T23:34:12.319Z,9.93
2023-04-01T23:36:44.943Z,8.52
2023-04-01T23:39:28.001Z,8.95
2023-04-01T23:41:59.567Z,8.52
2023-04-01T23:44:28.292Z,8.68
2023-04-01T23:46:56.956Z,7.95
2023-04-01T23:49:45.486Z,7.28
2023-04-01T23:52:23.421Z,7.82
2023-04-01T23:55:12.950Z,7.65
2023-04-01T23:57:40.897Z,7.70
